This is the latest recevied weather packets stored in our database for station/object KD4EG. If no packets are shown the sender has not sent any weather packets the latest 10 day(s).
| Time | Temp. | Humidity | Pressure | Rain* | Wind** | Luminosity | Snow |
|---|---|---|---|---|---|---|---|
| 1788458577 | 36.67° C | 47% | 1019.8 hPa | 0 mm | - | 651 W/m² | - |
| 1788458276 | 36.11° C | 48% | 1019.8 hPa | 0 mm | - | 645 W/m² | - |
| 1788457975 | 35.56° C | 48% | 1020.3 hPa | 0 mm | - | 682 W/m² | - |
| 1788457675 | 35.56° C | 48% | 1020.2 hPa | 0 mm | - | 698 W/m² | - |
| 1788457371 | 35.56° C | 48% | 1020.3 hPa | 0 mm | - | 700 W/m² | - |
| 1788457065 | 36.11° C | 47% | 1020.1 hPa | 0 mm | - | 695 W/m² | - |
| 1788456761 | 36.11° C | 47% | 1020.4 hPa | 0 mm | - | 726 W/m² | - |
| 1788456456 | 35.56° C | 49% | 1020.1 hPa | 0 mm | - | 192 W/m² | - |
| 1788456151 | 35° C | 51% | 1020.1 hPa | 0 mm | - | 718 W/m² | - |
| 1788455846 | 35° C | 51% | 1020.4 hPa | 0 mm | - | 684 W/m² | - |
| 1788455542 | 33.89° C | 52% | 1020.3 hPa | 0 mm | - | 637 W/m² | - |
| 1788455240 | 33.89° C | 52% | 1020.4 hPa | 0 mm | - | 222 W/m² | - |
| 1788454941 | 33.89° C | 55% | 1020.3 hPa | 0 mm | - | 177 W/m² | - |
| 1788454634 | 33.33° C | 55% | 1020.5 hPa | 0 mm | - | 162 W/m² | - |
| 1788454329 | 33.33° C | 55% | 1020.4 hPa | 0 mm | - | 136 W/m² | - |
| 1788454023 | 33.89° C | 55% | 1020.6 hPa | 0 mm | - | 137 W/m² | - |
| 1788453720 | 34.44° C | 54% | 1020.6 hPa | 0 mm | - | 161 W/m² | - |
| 1788453419 | 34.44° C | 54% | 1020.6 hPa | 0 mm | - | 697 W/m² | - |
| 1788453116 | 33.89° C | 56% | 1020.7 hPa | 0 mm | - | 685 W/m² | - |
| 1788452811 | 34.44° C | 54% | 1020.5 hPa | 0 mm | - | 646 W/m² | - |
| 1788452507 | 33.89° C | 55% | 1020.7 hPa | 0 mm | - | 701 W/m² | - |
| 1788452203 | 33.89° C | 55% | 1020.8 hPa | 0 mm | - | 697 W/m² | - |
| 1788451898 | 33.89° C | 55% | 1020.8 hPa | 0 mm | - | 676 W/m² | - |
| 1788451593 | 33.89° C | 54% | 1020.8 hPa | 0 mm | - | 672 W/m² | - |
| 1788451287 | 33.89° C | 55% | 1021.1 hPa | 0 mm | - | 688 W/m² | - |
* Rain latest hour (hover to see other rain measurements)
** Current wind speed in m/s (hover to see current wind gust speed)